Time;durP1;ratioP1;P1;durP2;ratioP2;P2;SDS_P1;SDS_P2;PMS_P1;PMS_P2;Temp;Humidity;BMP_temperature;BMP_pressure;BME280_temperature;BME280_humidity;BME280_pressure;Samples;Min_cycle;Max_cycle;Signal;HPM_P1;HPM_P2
2022/09/20 00:00:46;;;;;;;1.10;1.00;;;;;;;15.71;55.68;98173.75;4975504;28;20140;-71
2022/09/20 00:03:14;;;;;;;1.63;0.90;;;;;;;15.96;54.89;98182.47;4975341;28;20050;-72
2022/09/20 00:05:41;;;;;;;0.95;0.90;;;;;;;15.85;55.16;98184.03;4992530;28;20057;-72
2022/09/20 00:08:11;;;;;;;0.80;0.80;;;;;;;16.04;55.03;98195.50;4993189;28;20054;-72
2022/09/20 00:10:38;;;;;;;2.63;0.80;;;;;;;15.95;54.90;98180.81;4975983;28;20089;-73
2022/09/20 00:13:06;;;;;;;2.40;0.90;;;;;;;15.76;54.94;98147.91;4960570;28;20380;-72
2022/09/20 00:15:32;;;;;;;2.20;0.90;;;;;;;15.98;54.66;98175.81;4992437;28;20046;-72
2022/09/20 00:17:58;;;;;;;3.47;0.82;;;;;;;15.70;55.74;98186.28;4977202;28;20046;-73
2022/09/20 00:20:24;;;;;;;5.55;1.63;;;;;;;15.70;55.37;98194.31;4993199;28;20108;-73
2022/09/20 00:22:50;;;;;;;1.23;0.75;;;;;;;15.63;55.53;98200.81;4993287;28;20053;-73
2022/09/20 00:25:16;;;;;;;1.35;0.70;;;;;;;15.81;54.79;98176.69;4993593;28;20045;-71
2022/09/20 00:27:44;;;;;;;1.83;0.80;;;;;;;15.79;54.37;98168.88;4980438;28;20061;-72
2022/09/20 00:30:10;;;;;;;0.80;0.70;;;;;;;15.69;54.50;98176.63;4996640;28;20060;-73
2022/09/20 00:32:35;;;;;;;0.85;0.80;;;;;;;15.94;54.18;98192.56;5014471;28;20452;-72
2022/09/20 00:35:08;;;;;;;0.73;0.70;;;;;;;16.09;54.04;98204.50;4996551;28;20046;-72
2022/09/20 00:37:38;;;;;;;0.80;0.75;;;;;;;15.91;54.82;98219.81;5013579;28;20395;-71
2022/09/20 00:40:07;;;;;;;2.30;0.90;;;;;;;15.99;54.55;98206.13;4995832;28;20387;-70
2022/09/20 00:42:32;;;;;;;2.38;0.93;;;;;;;15.63;54.86;98216.84;4996221;28;20053;-71
2022/09/20 00:45:05;;;;;;;0.90;0.80;;;;;;;16.06;54.51;98206.81;4996286;28;20052;-71
2022/09/20 00:47:37;;;;;;;0.95;0.80;;;;;;;16.12;54.04;98220.13;5013722;28;20153;-71
2022/09/20 00:50:37;;;;;;;2.97;1.00;;;;;;;16.05;54.17;98215.91;4995652;28;20064;-71
2022/09/20 00:53:27;;;;;;;3.90;0.88;;;;;;;15.96;54.42;98218.06;5012809;28;20396;-71
2022/09/20 00:56:01;;;;;;;1.40;0.80;;;;;;;15.70;55.09;98250.53;4986256;28;20642;-70
2022/09/20 00:58:28;;;;;;;1.27;1.02;;;;;;;15.76;54.89;98227.41;4997393;28;20543;-70
2022/09/20 01:00:56;;;;;;;2.03;0.80;;;;;;;15.85;54.88;98234.09;4992083;28;20046;-70
2022/09/20 01:03:25;;;;;;;1.83;0.88;;;;;;;16.01;54.69;98242.31;4977135;28;20046;-70
2022/09/20 01:05:52;;;;;;;1.52;0.90;;;;;;;15.77;54.59;98223.69;4976113;28;20056;-70
2022/09/20 01:08:18;;;;;;;1.02;0.75;;;;;;;15.82;55.01;98238.03;4944581;28;20050;-71
2022/09/20 01:10:43;;;;;;;2.65;0.90;;;;;;;15.71;54.70;98260.22;4960667;28;20050;-70
2022/09/20 01:13:09;;;;;;;1.63;0.80;;;;;;;15.72;54.60;98221.69;4993662;28;20080;-70
2022/09/20 01:15:36;;;;;;;1.30;0.88;;;;;;;16.00;54.50;98256.75;4976572;28;20570;-71
2022/09/20 01:18:02;;;;;;;1.20;0.93;;;;;;;15.81;54.69;98262.34;4960613;28;20065;-70
2022/09/20 01:20:33;;;;;;;3.35;0.90;;;;;;;15.92;55.00;98281.16;4993938;28;20423;-70
2022/09/20 01:23:23;;;;;;;0.85;0.80;;;;;;;16.18;54.08;98272.78;4977347;28;20038;-70
2022/09/20 01:26:11;;;;;;;1.90;1.10;;;;;;;16.25;53.75;98273.50;4976447;28;20076;-71
2022/09/20 01:28:38;;;;;;;1.75;0.90;;;;;;;15.91;54.53;98252.75;4994184;28;20058;-69
2022/09/20 01:31:21;;;;;;;1.17;1.00;;;;;;;16.06;54.08;98314.78;4994107;28;20046;-70
2022/09/20 01:33:53;;;;;;;4.50;1.23;;;;;;;16.22;53.89;98271.28;4977835;28;20342;-70
2022/09/20 01:36:33;;;;;;;2.95;0.95;;;;;;;16.22;53.78;98303.44;4977182;28;20046;-70
2022/09/20 01:39:20;;;;;;;1.85;0.90;;;;;;;16.29;54.02;98320.25;4977973;28;20500;-70
2022/09/20 01:41:54;;;;;;;1.52;0.90;;;;;;;16.34;54.11;98308.84;4994205;28;20065;-70
2022/09/20 01:44:40;;;;;;;4.40;0.95;;;;;;;16.32;53.96;98298.34;4960689;28;20060;-70
2022/09/20 01:47:14;;;;;;;3.75;1.10;;;;;;;16.17;54.29;98308.66;4953750;28;20452;-70
2022/09/20 01:50:28;;;;;;;2.92;0.80;;;;;;;16.15;53.97;98297.34;4959978;28;20053;-70
2022/09/20 01:53:25;;;;;;;1.00;0.90;;;;;;;16.22;54.16;98306.09;4968903;28;20050;-69
2022/09/20 01:56:40;;;;;;;0.80;0.80;;;;;;;16.48;53.76;98307.66;4975593;28;20465;-69
2022/09/20 01:59:33;;;;;;;0.90;0.80;;;;;;;16.42;53.68;98320.06;4986394;28;20054;-70
2022/09/20 02:02:37;;;;;;;1.60;0.80;;;;;;;16.31;53.88;98331.53;4992640;28;20106;-69
2022/09/20 02:05:42;;;;;;;3.03;0.80;;;;;;;16.29;53.84;98324.78;4993222;28;20196;-70
2022/09/20 02:08:33;;;;;;;2.10;0.90;;;;;;;16.40;53.43;98329.38;4958275;28;20116;-70
2022/09/20 02:11:21;;;;;;;1.45;0.80;;;;;;;16.35;53.86;98318.50;4992343;28;20100;-70
2022/09/20 02:13:55;;;;;;;3.42;1.10;;;;;;;16.18;53.42;98366.53;4975606;28;20547;-72
2022/09/20 02:16:55;;;;;;;4.93;0.80;;;;;;;16.19;54.12;98343.25;4975593;28;20042;-70
2022/09/20 02:19:32;;;;;;;1.10;0.80;;;;;;;16.12;54.48;98321.91;4992399;28;20045;-70
2022/09/20 02:22:03;;;;;;;2.47;0.95;;;;;;;16.26;54.01;98342.13;4959449;28;20555;-70
2022/09/20 02:24:35;;;;;;;0.98;0.80;;;;;;;16.13;54.07;98326.22;4975538;28;20050;-69
2022/09/20 02:27:23;;;;;;;1.50;1.35;;;;;;;15.88;54.83;98338.06;4992929;28;20080;-69
2022/09/20 02:29:48;;;;;;;0.82;0.82;;;;;;;15.83;54.74;98357.47;4992810;28;20124;-69
2022/09/20 02:32:17;;;;;;;2.92;1.13;;;;;;;16.12;54.52;98343.34;4992959;28;20138;-69
2022/09/20 02:35:07;;;;;;;1.00;0.90;;;;;;;15.98;54.46;98365.94;4992826;28;20054;-69
2022/09/20 02:37:48;;;;;;;1.77;1.00;;;;;;;16.19;53.93;98378.88;4993987;28;20511;-68
2022/09/20 02:40:32;;;;;;;1.27;1.00;;;;;;;16.16;54.10;98373.19;4994255;28;20177;-69
2022/09/20 02:42:58;;;;;;;1.48;1.00;;;;;;;15.87;54.76;98380.06;4992652;28;20065;-69
2022/09/20 02:46:05;;;;;;;4.10;1.20;;;;;;;16.09;54.27;98445.56;4959633;28;20046;-70
2022/09/20 02:48:55;;;;;;;1.30;0.85;;;;;;;16.31;53.88;98387.81;4972109;28;20058;-71
2022/09/20 02:51:30;;;;;;;0.98;0.95;;;;;;;16.30;53.63;98383.50;4992806;28;20046;-70
2022/09/20 02:54:05;;;;;;;2.20;1.15;;;;;;;16.09;54.47;98400.03;4978003;28;20503;-70
2022/09/20 02:56:41;;;;;;;1.02;0.93;;;;;;;15.99;54.38;98402.38;4978941;28;20061;-70
2022/09/20 02:59:19;;;;;;;2.42;0.98;;;;;;;16.11;54.11;98381.06;4979425;28;20052;-70
2022/09/20 03:02:19;;;;;;;4.13;1.10;;;;;;;16.47;53.49;98399.81;4978907;28;20053;-70
2022/09/20 03:05:08;;;;;;;2.38;1.13;;;;;;;16.33;53.57;98422.41;4978985;28;20046;-70
2022/09/20 03:07:56;;;;;;;1.58;0.90;;;;;;;16.41;53.12;98403.34;4979320;28;20046;-70
2022/09/20 03:10:40;;;;;;;7.75;1.15;;;;;;;16.44;53.17;98422.53;4996605;28;20053;-70
2022/09/20 03:13:14;;;;;;;1.77;1.00;;;;;;;16.46;53.44;98423.13;4978893;28;20492;-70
2022/09/20 03:16:14;;;;;;;1.88;1.55;;;;;;;16.12;53.32;98436.25;4995635;28;20437;-71
2022/09/20 03:19:01;;;;;;;1.70;1.00;;;;;;;16.25;53.43;98450.31;4978242;28;20046;-71
2022/09/20 03:21:46;;;;;;;0.93;0.82;;;;;;;16.37;53.66;98442.38;4995593;28;20046;-69
2022/09/20 03:24:36;;;;;;;1.42;1.05;;;;;;;16.16;53.92;98477.66;4978831;28;20120;-70
2022/09/20 03:27:27;;;;;;;3.50;0.98;;;;;;;16.35;53.52;98441.78;4978453;28;20425;-70
2022/09/20 03:30:26;;;;;;;3.05;0.93;;;;;;;16.26;53.59;98467.22;4978649;28;20042;-70
2022/09/20 03:33:19;;;;;;;4.03;0.90;;;;;;;16.26;53.84;98476.09;4995451;28;20472;-70
2022/09/20 03:36:10;;;;;;;2.35;1.00;;;;;;;16.16;54.07;98454.34;4979135;28;20047;-69
2022/09/20 03:39:14;;;;;;;3.55;0.90;;;;;;;16.11;54.09;98461.41;4961999;28;20046;-70
2022/09/20 03:41:56;;;;;;;1.67;1.00;;;;;;;16.14;54.33;98461.78;4897799;29;20088;-70
2022/09/20 03:44:26;;;;;;;1.33;1.00;;;;;;;16.15;53.94;98463.41;4881866;29;20468;-71
2022/09/20 03:47:22;;;;;;;1.10;1.00;;;;;;;16.65;53.26;98482.91;4940361;28;20396;-70
2022/09/20 03:50:05;;;;;;;1.13;1.00;;;;;;;16.25;53.64;98474.44;4976618;28;20125;-70
2022/09/20 03:53:09;;;;;;;2.83;1.10;;;;;;;16.30;53.77;98511.28;4992565;28;20366;-70
2022/09/20 03:55:50;;;;;;;2.30;0.90;;;;;;;16.47;53.33;98483.72;4894462;29;20107;-71
2022/09/20 03:58:50;;;;;;;1.10;1.00;;;;;;;16.36;53.57;98503.16;4982946;28;20077;-70
2022/09/20 04:01:22;;;;;;;4.22;1.20;;;;;;;16.33;53.46;98500.94;4936016;28;20050;-70
2022/09/20 04:04:05;;;;;;;1.92;1.15;;;;;;;16.38;53.24;98487.69;4976034;28;20428;-75
2022/09/20 04:06:48;;;;;;;0.93;0.90;;;;;;;16.50;53.08;98480.59;4977441;28;20085;-74
2022/09/20 04:09:25;;;;;;;5.28;1.15;;;;;;;16.79;52.69;98519.22;4961665;28;20085;-78
2022/09/20 04:12:08;;;;;;;4.03;0.90;;;;;;;16.80;52.65;98520.88;4978879;28;20132;-81
2022/09/20 04:14:47;;;;;;;2.78;1.17;;;;;;;16.73;52.34;98518.25;4950988;28;20046;-83
2022/09/20 04:17:19;;;;;;;3.15;0.98;;;;;;;16.80;52.44;98553.84;4997463;28;20061;-81
2022/09/20 04:20:20;;;;;;;1.00;0.90;;;;;;;16.71;52.03;98514.19;4946162;28;20076;-77
2022/09/20 04:22:50;;;;;;;0.82;0.80;;;;;;;16.93;52.34;98530.63;4962539;28;20053;-79
2022/09/20 04:25:36;;;;;;;2.20;0.98;;;;;;;16.80;51.89;98543.13;4978137;28;20112;-79
2022/09/20 04:28:07;;;;;;;2.78;1.10;;;;;;;16.64;51.76;98508.88;4974986;28;20054;-78
2022/09/20 04:30:42;;;;;;;5.22;1.10;;;;;;;16.83;52.00;98531.16;4975665;28;20050;-79
2022/09/20 04:33:18;;;;;;;2.08;0.80;;;;;;;16.65;52.22;98550.72;4975357;28;20054;-77
2022/09/20 04:38:34;;;;;;;1.85;1.00;;;;;;;16.69;51.60;98535.84;4959096;28;20054;-79
2022/09/20 04:41:19;;;;;;;2.70;1.17;;;;;;;16.77;51.30;98532.84;4964489;28;20137;-78
2022/09/20 04:44:16;;;;;;;6.05;1.10;;;;;;;17.35;50.48;98568.03;4942450;28;20473;-80
2022/09/20 04:47:19;;;;;;;2.45;1.00;;;;;;;17.40;50.38;98570.03;4961775;28;20053;-75
2022/09/20 04:50:05;;;;;;;1.15;0.90;;;;;;;17.35;50.46;98584.13;4940663;28;20057;-79
2022/09/20 04:53:06;;;;;;;2.10;0.98;;;;;;;17.45;50.11;98602.44;4956253;28;20062;-81
2022/09/20 04:55:43;;;;;;;2.17;1.08;;;;;;;17.10;50.85;98598.72;4937451;28;20063;-74
2022/09/20 04:58:31;;;;;;;3.03;1.02;;;;;;;16.95;51.29;98569.56;4972679;28;20058;-74
2022/09/20 05:01:16;;;;;;;2.30;1.20;;;;;;;16.86;51.10;98578.97;4968162;28;20054;-73
2022/09/20 05:03:46;;;;;;;2.92;0.93;;;;;;;16.72;51.57;98615.00;4965760;28;20585;-75
2022/09/20 05:06:37;;;;;;;3.37;1.00;;;;;;;17.26;50.42;98612.34;4922247;28;20053;-75
2022/09/20 05:09:09;;;;;;;;;;;;;;;17.29;50.50;98616.41;4936074;28;20278;-75
2022/09/20 05:11:47;;;;;;;1.90;1.10;;;;;;;17.18;50.62;98614.50;4937392;28;19936;-76
2022/09/20 05:14:31;;;;;;;1.02;1.00;;;;;;;16.76;51.23;98621.56;4954282;28;20043;-75
2022/09/20 05:17:29;;;;;;;3.55;0.80;;;;;;;16.55;52.39;98614.75;4954025;28;20042;-75
2022/09/20 05:20:01;;;;;;;1.23;1.00;;;;;;;16.52;52.53;98617.88;4955926;28;20548;-75
2022/09/20 05:22:45;;;;;;;1.70;1.05;;;;;;;16.70;52.79;98627.81;4972032;28;20078;-77
2022/09/20 05:26:07;;;;;;;3.03;0.98;;;;;;;17.00;51.73;98619.88;4954939;28;20069;-76
2022/09/20 05:29:09;;;;;;;4.47;1.15;;;;;;;16.78;51.81;98647.13;4904512;29;20059;-77
2022/09/20 05:31:50;;;;;;;1.20;0.90;;;;;;;16.78;52.61;98636.41;4986073;28;20559;-76
2022/09/20 05:34:43;;;;;;;2.63;0.98;;;;;;;17.14;51.70;98627.56;4921821;28;20058;-74
2022/09/20 05:37:12;;;;;;;2.10;1.20;;;;;;;17.02;51.60;98636.56;4956068;28;20078;-74
2022/09/20 05:40:03;;;;;;;4.57;1.17;;;;;;;17.28;51.12;98647.81;4954961;28;20070;-74
2022/09/20 05:42:49;;;;;;;;;;;;;;;17.57;50.56;98667.72;4954560;28;20069;-74
2022/09/20 05:45:33;;;;;;;1.13;0.95;;;;;;;17.61;50.27;98663.53;4954017;28;20427;-74
2022/09/20 05:48:09;;;;;;;2.35;1.00;;;;;;;17.80;49.88;98686.63;4971030;28;20046;-75
2022/09/20 05:50:38;;;;;;;2.45;1.23;;;;;;;17.48;50.20;98671.78;4967077;28;20062;-74
2022/09/20 05:53:30;;;;;;;1.05;0.95;;;;;;;17.88;49.59;98683.66;4955060;28;20042;-75
2022/09/20 05:56:06;;;;;;;3.15;1.10;;;;;;;17.84;49.57;98671.69;4943429;28;20050;-74
2022/09/20 05:58:56;;;;;;;4.22;1.10;;;;;;;17.87;49.75;98672.06;4938859;28;20050;-75
2022/09/20 06:01:28;;;;;;;3.75;1.45;;;;;;;17.44;50.24;98676.75;4940528;28;20050;-76
2022/09/20 06:04:16;;;;;;;1.23;1.00;;;;;;;17.81;49.59;98688.28;4940084;28;20054;-74
2022/09/20 06:06:55;;;;;;;2.35;1.10;;;;;;;17.86;49.68;98672.28;4956681;28;20089;-76
2022/09/20 06:09:53;;;;;;;3.25;1.65;;;;;;;17.76;49.73;98696.22;4972853;28;20489;-77
2022/09/20 06:12:36;;;;;;;1.65;1.20;;;;;;;17.69;49.43;98653.31;4931220;28;20058;-76
2022/09/20 06:15:11;;;;;;;2.03;1.05;;;;;;;18.02;49.23;98691.28;4939091;28;20042;-77
2022/09/20 06:17:52;;;;;;;1.02;1.00;;;;;;;18.01;49.09;98704.94;4955667;28;20438;-76
2022/09/20 06:20:29;;;;;;;4.80;1.10;;;;;;;18.09;48.15;98726.94;4972212;28;20490;-75
2022/09/20 06:22:57;;;;;;;2.25;0.90;;;;;;;17.73;49.09;98704.69;4955172;28;20133;-74
2022/09/20 06:25:35;;;;;;;3.40;1.17;;;;;;;17.45;49.76;98721.34;4955571;28;20046;-75
2022/09/20 06:28:09;;;;;;;3.60;1.15;;;;;;;17.79;48.93;98711.88;4940653;28;20553;-74
2022/09/20 06:30:48;;;;;;;1.20;0.90;;;;;;;17.70;48.61;98723.94;4959198;28;20066;-74
2022/09/20 06:33:19;;;;;;;2.33;1.02;;;;;;;17.93;48.63;98732.94;4959107;28;20042;-74
2022/09/20 06:35:52;;;;;;;3.75;1.13;;;;;;;18.00;48.80;98724.81;4974988;28;20122;-75
2022/09/20 06:41:38;;;;;;;1.83;1.13;;;;;;;17.56;48.42;98752.03;4959185;28;20050;-73
2022/09/20 06:44:05;;;;;;;2.10;1.00;;;;;;;17.33;49.36;98715.06;4959455;28;20046;-73
2022/09/20 06:46:33;;;;;;;2.05;0.90;;;;;;;17.42;49.56;98715.59;4974666;28;20125;-75
2022/09/20 06:48:59;;;;;;;1.50;0.90;;;;;;;17.61;48.64;98738.72;4943229;28;20421;-74
2022/09/20 06:51:33;;;;;;;0.80;0.80;;;;;;;18.23;47.31;98738.34;4927172;28;20162;-74
2022/09/20 06:53:58;;;;;;;3.05;1.00;;;;;;;18.75;45.93;98764.47;4974729;28;20148;-74
2022/09/20 06:56:27;;;;;;;2.35;1.00;;;;;;;18.40;46.06;98763.56;4927650;28;20496;-75
2022/09/20 06:58:53;;;;;;;2.08;0.90;;;;;;;18.63;45.69;98752.03;4927640;28;20053;-74
2022/09/20 07:01:19;;;;;;;1.83;1.08;;;;;;;18.96;44.44;98771.97;4960361;28;20053;-75
2022/09/20 07:03:45;;;;;;;1.90;0.90;;;;;;;18.70;44.81;98756.25;4942135;28;20047;-74
2022/09/20 07:06:11;;;;;;;3.45;1.13;;;;;;;18.64;44.51;98810.13;4926583;28;20433;-74
2022/09/20 07:08:37;;;;;;;6.90;1.00;;;;;;;18.83;44.00;98760.59;4958710;28;20055;-74
2022/09/20 07:11:10;;;;;;;1.50;0.80;;;;;;;19.49;43.11;98756.56;4926261;28;20090;-74
2022/09/20 07:13:35;;;;;;;2.10;0.88;;;;;;;19.18;43.19;98756.88;4941528;28;20089;-74
2022/09/20 07:16:12;;;;;;;2.20;1.42;;;;;;;19.34;42.69;98791.19;4927292;28;20082;-73
2022/09/20 07:18:39;;;;;;;0.77;0.70;;;;;;;18.58;44.26;98776.09;4940890;28;20465;-74
2022/09/20 07:21:05;;;;;;;2.90;1.00;;;;;;;19.18;43.39;98810.72;4947576;28;20043;-74
2022/09/20 07:23:32;;;;;;;1.10;1.00;;;;;;;19.44;42.67;98796.84;4932819;28;20057;-73
2022/09/20 07:26:03;;;;;;;1.13;0.65;;;;;;;19.43;43.29;98792.53;4939056;29;20082;-76
2022/09/20 07:28:30;;;;;;;1.33;1.00;;;;;;;18.94;42.93;98792.94;4922782;28;20098;-77
2022/09/20 07:30:56;;;;;;;3.42;0.90;;;;;;;18.77;44.83;98783.88;4922742;28;20446;-74
2022/09/20 07:33:23;;;;;;;3.08;0.90;;;;;;;19.06;43.34;98809.06;4923035;29;20102;-75
2022/09/20 07:35:53;;;;;;;1.00;0.80;;;;;;;19.46;43.15;98802.81;4908278;29;20055;-75
2022/09/20 07:38:20;;;;;;;2.05;0.90;;;;;;;19.67;43.21;98810.28;4923827;28;20078;-74
2022/09/20 07:40:58;;;;;;;0.80;0.77;;;;;;;19.63;43.33;98809.13;4938220;29;20126;-73
2022/09/20 07:43:24;;;;;;;1.23;1.02;;;;;;;18.91;44.02;98812.22;4956006;28;20057;-74
2022/09/20 07:45:54;;;;;;;1.08;0.75;;;;;;;19.27;43.53;98806.66;4938872;29;20098;-79
2022/09/20 07:48:32;;;;;;;1.45;0.90;;;;;;;18.85;44.22;98809.63;4938911;29;20051;-76
2022/09/20 07:51:02;;;;;;;2.78;0.90;;;;;;;19.07;43.16;98818.78;4940401;29;20133;-75
2022/09/20 07:53:28;;;;;;;3.15;0.80;;;;;;;19.05;43.50;98810.13;4956339;28;20147;-75
2022/09/20 07:56:12;;;;;;;1.50;0.80;;;;;;;19.42;43.37;98808.91;4908785;29;20054;-73
2022/09/20 07:58:39;;;;;;;1.92;0.90;;;;;;;19.30;43.35;98802.69;4922214;28;20370;-76
2022/09/20 08:01:07;;;;;;;1.95;1.00;;;;;;;19.29;43.01;98826.13;4937991;29;20557;-76
2022/09/20 08:03:33;;;;;;;2.67;0.90;;;;;;;19.32;43.05;98817.56;4921926;29;20036;-76
2022/09/20 08:06:01;;;;;;;3.33;1.00;;;;;;;19.52;43.12;98804.56;4922231;29;20062;-76
2022/09/20 08:08:35;;;;;;;1.83;0.80;;;;;;;19.71;42.61;98797.97;4938497;29;20074;-82
2022/09/20 08:11:11;;;;;;;5.97;0.90;;;;;;;19.96;41.77;98833.56;4924499;29;20113;-82
2022/09/20 08:13:45;;;;;;;1.70;1.00;;;;;;;19.21;43.35;98837.19;4923289;29;20407;-76
2022/09/20 08:16:13;;;;;;;3.15;0.80;;;;;;;19.31;43.50;98823.19;4956860;28;20042;-76
2022/09/20 08:18:47;;;;;;;0.75;0.70;;;;;;;19.60;42.77;98833.81;4957107;28;20448;-75
2022/09/20 08:21:13;;;;;;;1.48;1.00;;;;;;;19.74;42.29;98845.19;4973924;28;20505;-73
2022/09/20 08:23:41;;;;;;;1.70;1.10;;;;;;;21.60;38.93;98857.69;4939700;28;20046;-73
2022/09/20 08:26:11;;;;;;;0.95;0.80;;;;;;;23.66;35.28;98860.03;4973341;28;20046;-74
2022/09/20 08:28:37;;;;;;;1.48;0.90;;;;;;;22.24;36.03;98848.03;4973391;28;20063;-72
2022/09/20 08:31:12;;;;;;;3.33;1.00;;;;;;;21.79;36.92;98859.06;4957647;28;20130;-75
2022/09/20 08:33:38;;;;;;;2.92;0.95;;;;;;;21.50;37.67;98830.50;4957240;28;20130;-74
2022/09/20 08:36:06;;;;;;;3.00;0.98;;;;;;;21.28;38.41;98865.53;4941037;28;20053;-74
2022/09/20 08:38:33;;;;;;;1.45;1.20;;;;;;;23.03;35.57;98828.34;4940679;28;20070;-73
2022/09/20 08:41:16;;;;;;;2.40;1.10;;;;;;;25.08;31.42;98844.91;4973422;28;20066;-74
2022/09/20 08:43:52;;;;;;;3.47;1.13;;;;;;;25.93;29.72;98803.25;4940036;28;20097;-72
2022/09/20 08:46:21;;;;;;;1.80;1.10;;;;;;;27.49;28.08;98798.50;4956646;28;20429;-73
2022/09/20 08:48:47;;;;;;;5.32;0.90;;;;;;;28.90;25.61;98819.47;4940873;28;20047;-73
2022/09/20 08:51:14;;;;;;;5.00;0.90;;;;;;;29.69;24.78;98809.47;4956225;28;20492;-73
2022/09/20 08:53:45;;;;;;;1.98;0.98;;;;;;;30.44;23.30;98825.25;4956294;28;20046;-73
2022/09/20 08:56:12;;;;;;;3.17;0.80;;;;;;;29.73;23.00;98835.13;4956389;28;20042;-73
2022/09/20 08:58:38;;;;;;;1.85;0.90;;;;;;;29.96;24.09;98801.25;4942024;28;20042;-73
2022/09/20 09:01:05;;;;;;;2.40;0.85;;;;;;;28.85;23.68;98825.03;4924924;28;20074;-73
2022/09/20 09:03:31;;;;;;;4.63;1.10;;;;;;;26.56;28.19;98807.06;4955996;28;20185;-71
2022/09/20 09:05:57;;;;;;;4.15;0.90;;;;;;;26.33;27.88;98809.38;4973230;28;20120;-71
2022/09/20 09:08:34;;;;;;;3.97;0.80;;;;;;;26.29;28.57;98830.06;4940437;28;20059;-70
2022/09/20 09:11:08;;;;;;;3.65;1.05;;;;;;;24.57;30.69;98810.59;4940273;28;20049;-72
2022/09/20 09:13:52;;;;;;;3.78;0.90;;;;;;;26.31;28.12;98837.97;4954544;28;20053;-72
2022/09/20 09:16:19;;;;;;;2.58;0.80;;;;;;;28.03;25.94;98836.47;4971724;28;20046;-71
2022/09/20 09:18:48;;;;;;;0.70;0.68;;;;;;;27.68;26.57;98836.78;4972731;28;20057;-73
2022/09/20 09:21:23;;;;;;;2.45;0.90;;;;;;;28.63;25.16;98816.59;4924878;28;20043;-72
2022/09/20 09:24:01;;;;;;;1.17;1.00;;;;;;;28.65;24.41;98835.41;4956018;28;20465;-73
2022/09/20 09:26:28;;;;;;;1.63;0.85;;;;;;;26.52;26.60;98779.59;4940437;28;20043;-72
2022/09/20 09:29:13;;;;;;;1.52;0.88;;;;;;;27.28;26.32;98821.59;4955592;28;20051;-73
2022/09/20 09:31:38;;;;;;;0.70;0.70;;;;;;;27.61;26.08;98855.41;4939233;28;20134;-78
2022/09/20 09:34:25;;;;;;;1.95;0.70;;;;;;;26.65;28.10;98830.75;4955335;28;20078;-73
2022/09/20 09:36:53;;;;;;;2.88;0.80;;;;;;;27.32;25.96;98852.69;4972912;28;20051;-72
2022/09/20 09:39:33;;;;;;;2.42;0.80;;;;;;;26.25;27.44;98839.06;4924868;28;20070;-72
2022/09/20 09:41:59;;;;;;;3.42;0.70;;;;;;;23.79;30.85;98854.16;4971226;28;20500;-72
2022/09/20 09:44:34;;;;;;;1.70;0.75;;;;;;;24.39;30.63;98835.50;4956009;28;20046;-71
2022/09/20 09:47:00;;;;;;;4.78;0.80;;;;;;;25.76;28.25;98879.75;4939817;28;20487;-72
2022/09/20 09:49:34;;;;;;;2.35;1.00;;;;;;;26.80;26.18;98838.03;4923463;28;20050;-71
2022/09/20 09:52:14;;;;;;;3.15;0.90;;;;;;;27.37;26.52;98865.47;4971899;28;20038;-74
2022/09/20 09:54:46;;;;;;;3.05;0.98;;;;;;;27.08;27.09;98869.97;4939272;28;20046;-73
2022/09/20 09:57:31;;;;;;;1.73;0.85;;;;;;;28.93;24.87;98876.31;4955313;28;20485;-72
2022/09/20 09:59:57;;;;;;;2.58;1.10;;;;;;;29.17;23.83;98870.75;4939207;28;20059;-73
2022/09/20 10:02:54;;;;;;;2.38;0.98;;;;;;;29.60;23.14;98903.19;4940652;28;20043;-73
2022/09/20 10:05:35;;;;;;;4.93;1.30;;;;;;;30.13;22.45;98894.59;4944029;28;20078;-74
2022/09/20 10:08:38;;;;;;;2.65;0.90;;;;;;;31.08;21.00;98895.41;4943011;28;20061;-72
2022/09/20 10:11:14;;;;;;;1.83;1.10;;;;;;;32.04;20.52;98888.41;4958619;28;20059;-72
2022/09/20 10:14:05;;;;;;;1.05;0.95;;;;;;;32.30;19.77;98897.56;4942511;28;20055;-74
2022/09/20 10:16:50;;;;;;;1.00;0.90;;;;;;;31.79;20.72;98883.53;4958599;28;20354;-71
2022/09/20 10:19:23;;;;;;;1.15;0.90;;;;;;;32.01;20.24;98946.72;4942613;28;20481;-74
2022/09/20 10:22:18;;;;;;;4.88;1.00;;;;;;;31.23;21.06;98906.00;4958398;28;20049;-79
2022/09/20 10:24:50;;;;;;;1.45;1.17;;;;;;;29.56;23.41;98890.41;4959034;28;20401;-77
2022/09/20 10:27:34;;;;;;;1.52;0.98;;;;;;;29.16;23.39;98820.75;4975175;28;20038;-75
2022/09/20 10:30:18;;;;;;;3.33;1.13;;;;;;;29.52;23.70;98912.06;4975127;28;20062;-76
2022/09/20 10:33:08;;;;;;;2.85;0.98;;;;;;;26.82;25.96;98928.47;4975586;28;20459;-76
2022/09/20 10:35:59;;;;;;;8.90;1.00;;;;;;;25.42;28.49;98891.44;4927722;28;20061;-74
2022/09/20 10:38:31;;;;;;;1.35;1.25;;;;;;;27.16;26.14;98951.19;4959043;28;20050;-72
2022/09/20 10:44:06;;;;;;;1.13;0.90;;;;;;;25.93;27.78;98920.25;4959315;28;20433;-74
2022/09/20 10:46:52;;;;;;;1.70;1.00;;;;;;;23.82;30.93;98897.03;4942724;28;20493;-73
2022/09/20 10:49:27;;;;;;;2.63;1.30;;;;;;;24.23;30.55;98890.81;4974569;28;20046;-74
2022/09/20 10:51:54;;;;;;;2.65;1.30;;;;;;;25.21;29.80;98930.53;4974708;28;20473;-75
2022/09/20 10:54:23;;;;;;;1.88;0.80;;;;;;;25.11;29.33;98942.19;4926887;28;20073;-73
2022/09/20 10:56:55;;;;;;;4.22;1.20;;;;;;;24.39;30.50;98958.47;4939851;28;20050;-74
2022/09/20 10:59:52;;;;;;;2.83;1.17;;;;;;;24.37;30.64;98932.69;4943523;28;20043;-74
2022/09/20 11:02:25;;;;;;;1.33;1.10;;;;;;;23.12;32.99;98927.88;4948204;28;20055;-75
2022/09/20 11:05:19;;;;;;;2.30;1.33;;;;;;;23.15;33.30;98986.13;4922412;28;20401;-75
2022/09/20 11:07:51;;;;;;;3.38;1.15;;;;;;;22.83;33.69;98990.63;4923063;29;20051;-76
2022/09/20 11:10:48;;;;;;;1.92;1.33;;;;;;;22.68;33.76;98985.03;4945278;28;20142;-76
2022/09/20 11:13:19;;;;;;;3.72;1.08;;;;;;;21.03;36.64;98950.69;4955915;28;20046;-76
2022/09/20 11:15:54;;;;;;;1.55;1.10;;;;;;;20.56;38.39;98976.16;4958155;28;20054;-77
2022/09/20 11:18:23;;;;;;;3.97;1.17;;;;;;;19.78;39.90;99025.03;4943562;28;20046;-77
2022/09/20 11:21:12;;;;;;;1.98;1.38;;;;;;;19.63;40.32;99000.41;4975027;28;20043;-75
2022/09/20 11:24:02;;;;;;;1.90;1.27;;;;;;;18.97;42.47;99002.38;4958521;28;20050;-75
2022/09/20 11:26:50;;;;;;;1.90;1.38;;;;;;;18.78;42.93;98991.84;4974728;28;20129;-76
2022/09/20 11:29:28;;;;;;;3.78;1.50;;;;;;;18.55;43.84;98995.22;4958802;28;20059;-80
2022/09/20 11:32:00;;;;;;;5.15;1.48;;;;;;;18.50;44.00;99013.88;4957998;28;20078;-77
2022/09/20 11:34:29;;;;;;;3.03;1.27;;;;;;;18.63;43.70;98989.53;4957872;28;20066;-78
2022/09/20 11:37:00;;;;;;;5.20;1.20;;;;;;;18.95;43.27;98991.00;4941794;28;20156;-76
2022/09/20 11:39:54;;;;;;;3.55;1.27;;;;;;;19.12;42.85;99004.63;4957463;28;20092;-74
2022/09/20 11:42:25;;;;;;;2.10;1.20;;;;;;;18.89;43.03;99010.75;4928130;28;20600;-78
2022/09/20 11:44:50;;;;;;;;;;;;;;;18.87;42.85;99007.44;4926373;28;20050;-77
2022/09/20 11:47:34;;;;;;;4.05;1.42;;;;;;;18.81;43.52;99020.97;4941773;28;20415;-78
2022/09/20 11:50:03;;;;;;;1.95;1.20;;;;;;;18.55;43.55;98995.22;4941154;28;20046;-74
2022/09/20 11:52:35;;;;;;;2.45;1.25;;;;;;;18.42;44.21;99016.88;4973885;28;20121;-73
2022/09/20 11:55:07;;;;;;;4.97;1.20;;;;;;;18.38;44.38;99004.91;4973769;28;20078;-76
2022/09/20 11:57:33;;;;;;;5.57;1.30;;;;;;;18.45;44.46;98997.63;4974146;28;20058;-74
2022/09/20 12:00:06;;;;;;;3.67;1.48;;;;;;;18.67;44.69;99004.19;4941635;28;20106;-74
2022/09/20 12:02:41;;;;;;;2.15;1.25;;;;;;;18.73;44.19;99013.22;4956655;28;20047;-75
2022/09/20 12:05:25;;;;;;;2.80;1.60;;;;;;;18.74;44.04;99001.41;4939188;28;20070;-76
2022/09/20 12:07:53;;;;;;;4.70;1.40;;;;;;;18.99;43.73;99027.16;4971850;28;20039;-76
2022/09/20 12:10:22;;;;;;;3.15;1.40;;;;;;;18.98;43.54;99003.16;4972222;28;20054;-75
2022/09/20 12:12:54;;;;;;;3.20;1.55;;;;;;;19.03;43.27;98993.38;4940672;28;20047;-75
2022/09/20 12:15:20;;;;;;;3.88;1.25;;;;;;;18.58;43.88;99012.75;4921300;29;20077;-75
2022/09/20 12:17:46;;;;;;;3.08;1.70;;;;;;;18.81;43.44;99015.59;4938198;29;20070;-75
2022/09/20 12:20:33;;;;;;;3.22;1.30;;;;;;;19.04;42.94;99032.69;4922813;29;20054;-77
2022/09/20 12:23:43;;;;;;;2.42;1.20;;;;;;;18.65;43.62;99022.41;4965457;28;20066;-75
2022/09/20 12:26:19;;;;;;;2.83;1.40;;;;;;;18.74;43.36;98998.72;4954103;28;20281;-80
2022/09/20 12:28:48;;;;;;;2.92;1.20;;;;;;;18.81;43.18;99016.44;4971444;28;20851;-77
2022/09/20 12:31:17;;;;;;;2.45;1.30;;;;;;;19.05;43.12;99010.09;4973953;28;20050;-81